sensor_id;sensor_type;location;lat;lon;timestamp;P1;durP1;ratioP1;P2;durP2;ratioP2
1693;SDS011;71975;47.068;15.408;2023-10-13T00:01:24;12.53;;;7.97;;
1693;SDS011;71975;47.068;15.408;2023-10-13T00:06:28;10.00;;;7.07;;
1693;SDS011;71975;47.068;15.408;2023-10-13T00:11:31;9.97;;;8.03;;
1693;SDS011;71975;47.068;15.408;2023-10-13T00:16:35;11.13;;;7.43;;
1693;SDS011;71975;47.068;15.408;2023-10-13T00:21:40;14.40;;;9.10;;
1693;SDS011;71975;47.068;15.408;2023-10-13T00:26:43;8.90;;;7.33;;
1693;SDS011;71975;47.068;15.408;2023-10-13T00:31:48;16.03;;;8.73;;
1693;SDS011;71975;47.068;15.408;2023-10-13T00:36:54;9.93;;;6.67;;
1693;SDS011;71975;47.068;15.408;2023-10-13T00:42:12;11.27;;;7.40;;
1693;SDS011;71975;47.068;15.408;2023-10-13T00:47:23;8.60;;;6.87;;
1693;SDS011;71975;47.068;15.408;2023-10-13T00:52:39;12.83;;;8.47;;
1693;SDS011;71975;47.068;15.408;2023-10-13T00:57:43;11.30;;;7.07;;
1693;SDS011;71975;47.068;15.408;2023-10-13T01:02:49;9.13;;;7.53;;
1693;SDS011;71975;47.068;15.408;2023-10-13T01:08:00;11.30;;;8.37;;
1693;SDS011;71975;47.068;15.408;2023-10-13T01:13:03;12.47;;;8.40;;
1693;SDS011;71975;47.068;15.408;2023-10-13T01:18:07;8.80;;;7.73;;
1693;SDS011;71975;47.068;15.408;2023-10-13T01:23:14;9.00;;;7.20;;
1693;SDS011;71975;47.068;15.408;2023-10-13T01:28:21;9.53;;;7.57;;
1693;SDS011;71975;47.068;15.408;2023-10-13T01:33:25;11.33;;;9.10;;
1693;SDS011;71975;47.068;15.408;2023-10-13T01:38:30;12.23;;;8.47;;
1693;SDS011;71975;47.068;15.408;2023-10-13T01:43:35;10.90;;;8.93;;
1693;SDS011;71975;47.068;15.408;2023-10-13T01:48:38;9.63;;;8.60;;
1693;SDS011;71975;47.068;15.408;2023-10-13T01:53:42;8.70;;;7.07;;
1693;SDS011;71975;47.068;15.408;2023-10-13T01:58:45;13.00;;;8.37;;
1693;SDS011;71975;47.068;15.408;2023-10-13T02:03:49;10.00;;;8.13;;
1693;SDS011;71975;47.068;15.408;2023-10-13T02:09:04;7.30;;;6.60;;
1693;SDS011;71975;47.068;15.408;2023-10-13T02:14:18;7.93;;;7.20;;
1693;SDS011;71975;47.068;15.408;2023-10-13T02:19:23;10.13;;;7.60;;
1693;SDS011;71975;47.068;15.408;2023-10-13T02:24:30;10.03;;;7.70;;
1693;SDS011;71975;47.068;15.408;2023-10-13T02:29:33;12.40;;;8.03;;
1693;SDS011;71975;47.068;15.408;2023-10-13T02:34:40;13.10;;;9.27;;
1693;SDS011;71975;47.068;15.408;2023-10-13T02:39:47;12.17;;;9.80;;
1693;SDS011;71975;47.068;15.408;2023-10-13T02:44:50;8.50;;;7.63;;
1693;SDS011;71975;47.068;15.408;2023-10-13T02:49:53;8.20;;;7.40;;
1693;SDS011;71975;47.068;15.408;2023-10-13T02:54:58;8.90;;;6.97;;
1693;SDS011;71975;47.068;15.408;2023-10-13T03:00:01;7.97;;;7.17;;
1693;SDS011;71975;47.068;15.408;2023-10-13T03:05:13;9.37;;;7.40;;
1693;SDS011;71975;47.068;15.408;2023-10-13T03:10:20;12.30;;;7.63;;
1693;SDS011;71975;47.068;15.408;2023-10-13T03:15:30;8.73;;;7.57;;
1693;SDS011;71975;47.068;15.408;2023-10-13T03:20:38;7.33;;;6.60;;
1693;SDS011;71975;47.068;15.408;2023-10-13T03:25:44;9.50;;;7.63;;
1693;SDS011;71975;47.068;15.408;2023-10-13T03:30:51;8.83;;;7.63;;
1693;SDS011;71975;47.068;15.408;2023-10-13T03:35:55;10.37;;;8.10;;
1693;SDS011;71975;47.068;15.408;2023-10-13T03:41:08;11.20;;;7.43;;
1693;SDS011;71975;47.068;15.408;2023-10-13T03:46:20;9.00;;;7.50;;
1693;SDS011;71975;47.068;15.408;2023-10-13T03:51:24;10.17;;;8.80;;
1693;SDS011;71975;47.068;15.408;2023-10-13T03:56:34;12.13;;;8.43;;
1693;SDS011;71975;47.068;15.408;2023-10-13T04:01:42;9.40;;;8.50;;
1693;SDS011;71975;47.068;15.408;2023-10-13T04:06:48;10.20;;;8.40;;
1693;SDS011;71975;47.068;15.408;2023-10-13T04:12:15;9.20;;;8.23;;
1693;SDS011;71975;47.068;15.408;2023-10-13T04:17:44;18.40;;;12.47;;
1693;SDS011;71975;47.068;15.408;2023-10-13T04:22:48;12.33;;;9.60;;
1693;SDS011;71975;47.068;15.408;2023-10-13T04:28:12;15.45;;;13.80;;
1693;SDS011;71975;47.068;15.408;2023-10-13T04:33:36;13.67;;;11.57;;
1693;SDS011;71975;47.068;15.408;2023-10-13T04:38:45;23.63;;;14.60;;
1693;SDS011;71975;47.068;15.408;2023-10-13T04:44:00;17.93;;;12.10;;
1693;SDS011;71975;47.068;15.408;2023-10-13T04:49:25;20.63;;;13.07;;
1693;SDS011;71975;47.068;15.408;2023-10-13T04:54:30;17.37;;;12.23;;
1693;SDS011;71975;47.068;15.408;2023-10-13T04:59:48;18.00;;;12.97;;
1693;SDS011;71975;47.068;15.408;2023-10-13T05:05:09;14.60;;;11.33;;
1693;SDS011;71975;47.068;15.408;2023-10-13T05:10:39;17.30;;;11.87;;
1693;SDS011;71975;47.068;15.408;2023-10-13T05:16:00;21.13;;;10.17;;
1693;SDS011;71975;47.068;15.408;2023-10-13T05:21:21;12.33;;;9.50;;
1693;SDS011;71975;47.068;15.408;2023-10-13T05:26:56;14.93;;;10.60;;
1693;SDS011;71975;47.068;15.408;2023-10-13T05:32:18;14.60;;;9.80;;
1693;SDS011;71975;47.068;15.408;2023-10-13T05:37:38;19.10;;;10.97;;
1693;SDS011;71975;47.068;15.408;2023-10-13T05:42:58;12.33;;;9.73;;
1693;SDS011;71975;47.068;15.408;2023-10-13T05:48:20;14.53;;;9.93;;
1693;SDS011;71975;47.068;15.408;2023-10-13T05:53:42;15.70;;;8.73;;
1693;SDS011;71975;47.068;15.408;2023-10-13T05:59:03;13.60;;;9.20;;
1693;SDS011;71975;47.068;15.408;2023-10-13T06:04:24;16.23;;;9.17;;
1693;SDS011;71975;47.068;15.408;2023-10-13T06:09:45;14.10;;;9.10;;
1693;SDS011;71975;47.068;15.408;2023-10-13T06:15:06;12.57;;;9.20;;
1693;SDS011;71975;47.068;15.408;2023-10-13T06:20:28;19.57;;;10.23;;
1693;SDS011;71975;47.068;15.408;2023-10-13T06:25:52;10.17;;;7.93;;
1693;SDS011;71975;47.068;15.408;2023-10-13T06:31:13;14.13;;;9.30;;
1693;SDS011;71975;47.068;15.408;2023-10-13T06:36:25;12.07;;;9.00;;
1693;SDS011;71975;47.068;15.408;2023-10-13T06:41:28;14.40;;;9.60;;
1693;SDS011;71975;47.068;15.408;2023-10-13T06:46:33;14.73;;;9.73;;
1693;SDS011;71975;47.068;15.408;2023-10-13T06:51:38;13.33;;;8.83;;
1693;SDS011;71975;47.068;15.408;2023-10-13T06:56:40;10.10;;;8.60;;
1693;SDS011;71975;47.068;15.408;2023-10-13T07:01:44;16.87;;;14.20;;
1693;SDS011;71975;47.068;15.408;2023-10-13T07:06:55;11.90;;;9.53;;
1693;SDS011;71975;47.068;15.408;2023-10-13T07:11:58;11.03;;;7.50;;
1693;SDS011;71975;47.068;15.408;2023-10-13T07:17:03;9.97;;;7.70;;
1693;SDS011;71975;47.068;15.408;2023-10-13T07:22:10;9.20;;;7.57;;
1693;SDS011;71975;47.068;15.408;2023-10-13T07:27:22;16.40;;;9.37;;
1693;SDS011;71975;47.068;15.408;2023-10-13T07:32:26;10.27;;;8.57;;
1693;SDS011;71975;47.068;15.408;2023-10-13T07:37:30;12.43;;;9.10;;
1693;SDS011;71975;47.068;15.408;2023-10-13T07:42:34;13.40;;;10.23;;
1693;SDS011;71975;47.068;15.408;2023-10-13T07:47:41;14.30;;;8.57;;
1693;SDS011;71975;47.068;15.408;2023-10-13T07:52:46;15.30;;;9.70;;
1693;SDS011;71975;47.068;15.408;2023-10-13T07:58:00;15.27;;;10.00;;
1693;SDS011;71975;47.068;15.408;2023-10-13T08:03:09;17.10;;;10.43;;
1693;SDS011;71975;47.068;15.408;2023-10-13T08:08:22;15.13;;;10.30;;
1693;SDS011;71975;47.068;15.408;2023-10-13T08:13:27;15.83;;;11.17;;
1693;SDS011;71975;47.068;15.408;2023-10-13T08:18:30;11.53;;;10.40;;
1693;SDS011;71975;47.068;15.408;2023-10-13T08:23:35;11.10;;;10.00;;
1693;SDS011;71975;47.068;15.408;2023-10-13T08:28:52;12.50;;;9.03;;
1693;SDS011;71975;47.068;15.408;2023-10-13T08:33:58;9.37;;;8.17;;
1693;SDS011;71975;47.068;15.408;2023-10-13T08:39:09;11.50;;;7.47;;
1693;SDS011;71975;47.068;15.408;2023-10-13T08:44:44;9.70;;;8.37;;
1693;SDS011;71975;47.068;15.408;2023-10-13T08:49:48;20.20;;;9.37;;
1693;SDS011;71975;47.068;15.408;2023-10-13T08:55:00;11.23;;;8.03;;
1693;SDS011;71975;47.068;15.408;2023-10-13T09:00:15;14.73;;;9.10;;
1693;SDS011;71975;47.068;15.408;2023-10-13T09:05:51;12.87;;;9.30;;
1693;SDS011;71975;47.068;15.408;2023-10-13T09:11:09;18.03;;;12.50;;
1693;SDS011;71975;47.068;15.408;2023-10-13T09:16:23;15.37;;;11.37;;
1693;SDS011;71975;47.068;15.408;2023-10-13T09:21:50;12.50;;;10.50;;
1693;SDS011;71975;47.068;15.408;2023-10-13T09:26:59;11.27;;;10.17;;
1693;SDS011;71975;47.068;15.408;2023-10-13T09:32:06;14.43;;;12.40;;
1693;SDS011;71975;47.068;15.408;2023-10-13T09:37:13;13.50;;;10.20;;
1693;SDS011;71975;47.068;15.408;2023-10-13T09:42:24;11.53;;;9.33;;
1693;SDS011;71975;47.068;15.408;2023-10-13T09:47:27;12.80;;;9.90;;
1693;SDS011;71975;47.068;15.408;2023-10-13T09:52:39;9.93;;;8.60;;
1693;SDS011;71975;47.068;15.408;2023-10-13T09:57:49;10.33;;;8.80;;
1693;SDS011;71975;47.068;15.408;2023-10-13T10:02:59;11.93;;;9.47;;
1693;SDS011;71975;47.068;15.408;2023-10-13T10:08:25;15.63;;;8.63;;
1693;SDS011;71975;47.068;15.408;2023-10-13T10:13:52;13.27;;;8.50;;
1693;SDS011;71975;47.068;15.408;2023-10-13T10:18:59;11.00;;;7.97;;
1693;SDS011;71975;47.068;15.408;2023-10-13T10:24:13;9.27;;;7.40;;
1693;SDS011;71975;47.068;15.408;2023-10-13T10:29:27;10.73;;;8.10;;
1693;SDS011;71975;47.068;15.408;2023-10-13T10:34:33;10.30;;;7.67;;
1693;SDS011;71975;47.068;15.408;2023-10-13T10:39:37;11.30;;;8.37;;
1693;SDS011;71975;47.068;15.408;2023-10-13T10:44:49;8.33;;;7.50;;
1693;SDS011;71975;47.068;15.408;2023-10-13T10:49:58;10.80;;;7.53;;
1693;SDS011;71975;47.068;15.408;2023-10-13T10:55:02;9.87;;;7.53;;
1693;SDS011;71975;47.068;15.408;2023-10-13T11:00:17;8.90;;;7.20;;
1693;SDS011;71975;47.068;15.408;2023-10-13T11:05:22;9.83;;;7.47;;
1693;SDS011;71975;47.068;15.408;2023-10-13T11:10:26;8.40;;;7.20;;
1693;SDS011;71975;47.068;15.408;2023-10-13T11:15:31;10.10;;;8.30;;
1693;SDS011;71975;47.068;15.408;2023-10-13T11:20:46;8.43;;;5.90;;
1693;SDS011;71975;47.068;15.408;2023-10-13T11:25:58;12.67;;;6.80;;
1693;SDS011;71975;47.068;15.408;2023-10-13T11:31:03;12.33;;;5.77;;
1693;SDS011;71975;47.068;15.408;2023-10-13T11:36:13;7.83;;;5.80;;
1693;SDS011;71975;47.068;15.408;2023-10-13T11:41:19;6.97;;;5.83;;
1693;SDS011;71975;47.068;15.408;2023-10-13T11:46:25;8.87;;;6.10;;
1693;SDS011;71975;47.068;15.408;2023-10-13T11:51:49;9.30;;;5.87;;
1693;SDS011;71975;47.068;15.408;2023-10-13T11:56:52;12.27;;;5.40;;
1693;SDS011;71975;47.068;15.408;2023-10-13T12:02:00;9.17;;;5.30;;
1693;SDS011;71975;47.068;15.408;2023-10-13T12:07:21;7.90;;;5.63;;
1693;SDS011;71975;47.068;15.408;2023-10-13T12:12:29;11.43;;;6.30;;
1693;SDS011;71975;47.068;15.408;2023-10-13T12:17:34;7.20;;;5.40;;
1693;SDS011;71975;47.068;15.408;2023-10-13T12:22:38;6.90;;;5.50;;
1693;SDS011;71975;47.068;15.408;2023-10-13T12:27:44;12.93;;;6.57;;
1693;SDS011;71975;47.068;15.408;2023-10-13T12:32:51;6.93;;;5.87;;
1693;SDS011;71975;47.068;15.408;2023-10-13T12:38:00;8.17;;;6.47;;
1693;SDS011;71975;47.068;15.408;2023-10-13T12:43:07;8.87;;;6.40;;
1693;SDS011;71975;47.068;15.408;2023-10-13T12:48:29;6.60;;;5.77;;
1693;SDS011;71975;47.068;15.408;2023-10-13T12:53:53;7.17;;;5.37;;
1693;SDS011;71975;47.068;15.408;2023-10-13T12:58:57;6.20;;;4.90;;
1693;SDS011;71975;47.068;15.408;2023-10-13T13:04:01;12.90;;;6.20;;
1693;SDS011;71975;47.068;15.408;2023-10-13T13:09:06;9.90;;;5.10;;
1693;SDS011;71975;47.068;15.408;2023-10-13T13:14:10;7.53;;;5.23;;
1693;SDS011;71975;47.068;15.408;2023-10-13T13:19:15;7.03;;;5.10;;
1693;SDS011;71975;47.068;15.408;2023-10-13T13:24:27;7.80;;;7.13;;
1693;SDS011;71975;47.068;15.408;2023-10-13T13:29:31;6.50;;;4.60;;
1693;SDS011;71975;47.068;15.408;2023-10-13T13:34:36;11.13;;;5.80;;
1693;SDS011;71975;47.068;15.408;2023-10-13T13:39:38;8.40;;;5.60;;
1693;SDS011;71975;47.068;15.408;2023-10-13T13:44:46;9.50;;;5.53;;
1693;SDS011;71975;47.068;15.408;2023-10-13T13:49:51;13.03;;;5.70;;
1693;SDS011;71975;47.068;15.408;2023-10-13T13:54:56;8.00;;;5.07;;
1693;SDS011;71975;47.068;15.408;2023-10-13T14:00:03;6.77;;;4.17;;
1693;SDS011;71975;47.068;15.408;2023-10-13T14:05:09;5.70;;;5.10;;
1693;SDS011;71975;47.068;15.408;2023-10-13T14:10:18;8.50;;;5.20;;
1693;SDS011;71975;47.068;15.408;2023-10-13T14:15:34;7.80;;;7.00;;
1693;SDS011;71975;47.068;15.408;2023-10-13T14:20:46;7.10;;;4.80;;
1693;SDS011;71975;47.068;15.408;2023-10-13T14:25:50;6.40;;;5.40;;
1693;SDS011;71975;47.068;15.408;2023-10-13T14:30:53;7.57;;;5.10;;
1693;SDS011;71975;47.068;15.408;2023-10-13T14:35:57;10.30;;;6.40;;
1693;SDS011;71975;47.068;15.408;2023-10-13T14:41:00;7.87;;;5.20;;
1693;SDS011;71975;47.068;15.408;2023-10-13T14:46:07;6.50;;;4.90;;
1693;SDS011;71975;47.068;15.408;2023-10-13T14:51:12;7.60;;;5.90;;
1693;SDS011;71975;47.068;15.408;2023-10-13T14:56:16;6.77;;;6.07;;
1693;SDS011;71975;47.068;15.408;2023-10-13T15:01:19;6.07;;;5.20;;
1693;SDS011;71975;47.068;15.408;2023-10-13T15:06:25;12.80;;;6.30;;
1693;SDS011;71975;47.068;15.408;2023-10-13T15:11:30;7.73;;;5.90;;
1693;SDS011;71975;47.068;15.408;2023-10-13T15:16:49;6.27;;;5.57;;
1693;SDS011;71975;47.068;15.408;2023-10-13T15:21:56;10.60;;;6.07;;
1693;SDS011;71975;47.068;15.408;2023-10-13T15:27:01;10.20;;;6.43;;
1693;SDS011;71975;47.068;15.408;2023-10-13T15:32:05;10.23;;;5.80;;
1693;SDS011;71975;47.068;15.408;2023-10-13T15:37:31;7.50;;;6.70;;
1693;SDS011;71975;47.068;15.408;2023-10-13T15:42:33;8.43;;;7.00;;
1693;SDS011;71975;47.068;15.408;2023-10-13T15:47:39;12.70;;;7.83;;
1693;SDS011;71975;47.068;15.408;2023-10-13T15:53:08;14.37;;;7.70;;
1693;SDS011;71975;47.068;15.408;2023-10-13T15:58:14;10.57;;;6.20;;
1693;SDS011;71975;47.068;15.408;2023-10-13T16:03:17;7.77;;;7.07;;
1693;SDS011;71975;47.068;15.408;2023-10-13T16:08:22;11.70;;;7.20;;
1693;SDS011;71975;47.068;15.408;2023-10-13T16:13:25;9.10;;;6.57;;
1693;SDS011;71975;47.068;15.408;2023-10-13T16:18:27;8.50;;;7.30;;
1693;SDS011;71975;47.068;15.408;2023-10-13T16:23:35;7.10;;;6.40;;
1693;SDS011;71975;47.068;15.408;2023-10-13T16:28:40;9.37;;;6.87;;
1693;SDS011;71975;47.068;15.408;2023-10-13T16:33:43;9.73;;;7.07;;
1693;SDS011;71975;47.068;15.408;2023-10-13T16:38:47;7.17;;;6.43;;
1693;SDS011;71975;47.068;15.408;2023-10-13T16:43:50;14.43;;;7.37;;
1693;SDS011;71975;47.068;15.408;2023-10-13T16:48:53;10.23;;;7.00;;
1693;SDS011;71975;47.068;15.408;2023-10-13T16:53:58;10.37;;;8.10;;
1693;SDS011;71975;47.068;15.408;2023-10-13T16:59:01;10.70;;;8.43;;
1693;SDS011;71975;47.068;15.408;2023-10-13T17:04:06;11.80;;;7.90;;
1693;SDS011;71975;47.068;15.408;2023-10-13T17:09:13;10.30;;;7.70;;
1693;SDS011;71975;47.068;15.408;2023-10-13T17:14:17;11.27;;;8.17;;
1693;SDS011;71975;47.068;15.408;2023-10-13T17:19:21;10.70;;;8.13;;
1693;SDS011;71975;47.068;15.408;2023-10-13T17:24:26;9.60;;;7.90;;
1693;SDS011;71975;47.068;15.408;2023-10-13T17:29:30;13.20;;;8.30;;
1693;SDS011;71975;47.068;15.408;2023-10-13T17:34:37;13.93;;;7.53;;
1693;SDS011;71975;47.068;15.408;2023-10-13T17:39:42;8.87;;;7.97;;
1693;SDS011;71975;47.068;15.408;2023-10-13T17:44:45;15.53;;;13.00;;
1693;SDS011;71975;47.068;15.408;2023-10-13T17:49:49;7.83;;;6.27;;
1693;SDS011;71975;47.068;15.408;2023-10-13T17:54:54;10.20;;;8.20;;
1693;SDS011;71975;47.068;15.408;2023-10-13T17:59:57;11.37;;;8.40;;
1693;SDS011;71975;47.068;15.408;2023-10-13T18:05:01;9.33;;;7.30;;
1693;SDS011;71975;47.068;15.408;2023-10-13T18:10:08;13.63;;;9.10;;
1693;SDS011;71975;47.068;15.408;2023-10-13T18:15:15;9.40;;;7.70;;
1693;SDS011;71975;47.068;15.408;2023-10-13T18:20:26;29.13;;;20.40;;
1693;SDS011;71975;47.068;15.408;2023-10-13T18:25:36;14.07;;;9.57;;
1693;SDS011;71975;47.068;15.408;2023-10-13T18:30:45;10.63;;;9.23;;
1693;SDS011;71975;47.068;15.408;2023-10-13T18:36:12;13.63;;;9.07;;
1693;SDS011;71975;47.068;15.408;2023-10-13T18:41:20;10.93;;;9.00;;
1693;SDS011;71975;47.068;15.408;2023-10-13T18:46:26;10.73;;;9.73;;
1693;SDS011;71975;47.068;15.408;2023-10-13T18:51:31;12.60;;;11.30;;
1693;SDS011;71975;47.068;15.408;2023-10-13T18:56:39;10.53;;;9.53;;
1693;SDS011;71975;47.068;15.408;2023-10-13T19:01:45;15.30;;;11.70;;
1693;SDS011;71975;47.068;15.408;2023-10-13T19:06:51;9.57;;;8.17;;
1693;SDS011;71975;47.068;15.408;2023-10-13T19:11:58;16.10;;;10.23;;
1693;SDS011;71975;47.068;15.408;2023-10-13T19:17:04;17.97;;;10.70;;
1693;SDS011;71975;47.068;15.408;2023-10-13T19:22:09;15.40;;;10.87;;
1693;SDS011;71975;47.068;15.408;2023-10-13T19:27:17;14.43;;;10.30;;
1693;SDS011;71975;47.068;15.408;2023-10-13T19:32:22;11.20;;;9.43;;
1693;SDS011;71975;47.068;15.408;2023-10-13T19:37:30;14.47;;;11.00;;
1693;SDS011;71975;47.068;15.408;2023-10-13T19:42:43;12.13;;;10.50;;
1693;SDS011;71975;47.068;15.408;2023-10-13T19:47:48;16.30;;;11.33;;
1693;SDS011;71975;47.068;15.408;2023-10-13T19:52:54;11.23;;;10.03;;
1693;SDS011;71975;47.068;15.408;2023-10-13T19:58:03;12.70;;;11.33;;
1693;SDS011;71975;47.068;15.408;2023-10-13T20:03:09;11.30;;;10.00;;
1693;SDS011;71975;47.068;15.408;2023-10-13T20:08:15;20.60;;;14.17;;
1693;SDS011;71975;47.068;15.408;2023-10-13T20:13:23;20.83;;;11.90;;
1693;SDS011;71975;47.068;15.408;2023-10-13T20:18:26;14.07;;;11.97;;
1693;SDS011;71975;47.068;15.408;2023-10-13T20:23:33;12.27;;;10.80;;
1693;SDS011;71975;47.068;15.408;2023-10-13T20:28:39;10.40;;;9.23;;
1693;SDS011;71975;47.068;15.408;2023-10-13T20:33:43;10.27;;;9.20;;
1693;SDS011;71975;47.068;15.408;2023-10-13T20:38:46;17.00;;;10.20;;
1693;SDS011;71975;47.068;15.408;2023-10-13T20:43:53;11.50;;;10.30;;
1693;SDS011;71975;47.068;15.408;2023-10-13T20:48:56;12.43;;;9.70;;
1693;SDS011;71975;47.068;15.408;2023-10-13T20:53:59;13.80;;;8.30;;
1693;SDS011;71975;47.068;15.408;2023-10-13T20:59:04;15.87;;;11.60;;
1693;SDS011;71975;47.068;15.408;2023-10-13T21:04:07;15.73;;;11.00;;
1693;SDS011;71975;47.068;15.408;2023-10-13T21:09:11;11.57;;;10.23;;
1693;SDS011;71975;47.068;15.408;2023-10-13T21:14:23;12.43;;;11.13;;
1693;SDS011;71975;47.068;15.408;2023-10-13T21:19:26;9.97;;;9.00;;
1693;SDS011;71975;47.068;15.408;2023-10-13T21:24:29;15.07;;;10.30;;
1693;SDS011;71975;47.068;15.408;2023-10-13T21:29:34;13.10;;;9.53;;
1693;SDS011;71975;47.068;15.408;2023-10-13T21:34:39;10.30;;;9.20;;
1693;SDS011;71975;47.068;15.408;2023-10-13T21:39:42;11.67;;;10.10;;
1693;SDS011;71975;47.068;15.408;2023-10-13T21:44:51;9.93;;;8.93;;
1693;SDS011;71975;47.068;15.408;2023-10-13T21:49:57;10.17;;;9.17;;
1693;SDS011;71975;47.068;15.408;2023-10-13T21:55:00;11.30;;;10.20;;
1693;SDS011;71975;47.068;15.408;2023-10-13T22:00:05;12.17;;;9.90;;
1693;SDS011;71975;47.068;15.408;2023-10-13T22:05:13;10.10;;;8.63;;
1693;SDS011;71975;47.068;15.408;2023-10-13T22:10:16;11.20;;;9.40;;
1693;SDS011;71975;47.068;15.408;2023-10-13T22:15:20;14.33;;;10.70;;
1693;SDS011;71975;47.068;15.408;2023-10-13T22:20:23;17.10;;;9.90;;
1693;SDS011;71975;47.068;15.408;2023-10-13T22:25:26;9.63;;;8.63;;
1693;SDS011;71975;47.068;15.408;2023-10-13T22:30:33;13.73;;;10.20;;
1693;SDS011;71975;47.068;15.408;2023-10-13T22:35:36;11.37;;;10.27;;
1693;SDS011;71975;47.068;15.408;2023-10-13T22:40:39;11.63;;;10.63;;
1693;SDS011;71975;47.068;15.408;2023-10-13T22:45:43;12.93;;;11.67;;
1693;SDS011;71975;47.068;15.408;2023-10-13T22:50:48;15.30;;;11.03;;
1693;SDS011;71975;47.068;15.408;2023-10-13T22:55:51;15.70;;;12.13;;
1693;SDS011;71975;47.068;15.408;2023-10-13T23:00:56;14.20;;;12.07;;
1693;SDS011;71975;47.068;15.408;2023-10-13T23:06:01;16.70;;;12.40;;
1693;SDS011;71975;47.068;15.408;2023-10-13T23:11:06;14.47;;;11.90;;
1693;SDS011;71975;47.068;15.408;2023-10-13T23:16:18;14.70;;;12.80;;
1693;SDS011;71975;47.068;15.408;2023-10-13T23:21:23;14.73;;;13.20;;
1693;SDS011;71975;47.068;15.408;2023-10-13T23:26:28;19.70;;;14.23;;
1693;SDS011;71975;47.068;15.408;2023-10-13T23:31:32;15.60;;;13.50;;
1693;SDS011;71975;47.068;15.408;2023-10-13T23:36:37;15.77;;;12.90;;
1693;SDS011;71975;47.068;15.408;2023-10-13T23:41:40;13.10;;;11.80;;
1693;SDS011;71975;47.068;15.408;2023-10-13T23:46:45;14.40;;;12.90;;
1693;SDS011;71975;47.068;15.408;2023-10-13T23:51:48;16.00;;;12.80;;
1693;SDS011;71975;47.068;15.408;2023-10-13T23:56:55;12.20;;;10.93;;
